NCAR-RAP Real-Time Weather Data

Output produced by METARs form (08 May 2021  16:02 UTC)
found at http://weather.rap.ucar.edu/surface/
 
KCYS 081553Z 32016G24KT 10SM CLR 15/M01 A2980 RMK AO2 PK WND 28031/1517 SLP020 T01501011 $
KCYS 081453Z 30017G30KT 10SM CLR 13/M03 A2979 RMK AO2 PK WND 30036/1437 SLP014 T01331028 50003 $
KCYS 081353Z 29016G23KT 10SM CLR 12/01 A2981 RMK AO2 PK WND 28027/1308 SLP022 T01170006 $
KCYS 081253Z 29016G29KT 10SM CLR 11/M01 A2980 RMK AO2 PK WND 29033/1241 SLP016 T01111006 $
KCYS 081153Z 30019G30KT 10SM CLR 11/00 A2978 RMK AO2 PK WND 30030/1142 SLP006 T01110000 10133 20083 53011 $
KCYS 081053Z AUTO 31013G22KT 10SM CLR 11/01 A2977 RMK AO2 SLP001 T01110006 $
KCYS 080953Z AUTO 26005KT 10SM CLR 09/07 A2975 RMK AO2 SLP999 T00890067 $
KCYS 080853Z AUTO 20003KT 10SM CLR 10/07 A2974 RMK AO2 SLP993 T01000072 58021 $
KCYS 080753Z AUTO 22009KT 10SM CLR 11/08 A2979 RMK AO2 SLP005 T01060078 $
KCYS 080653Z AUTO 18005KT 10SM CLR 12/08 A2980 RMK AO2 SLP012 T01220078 402610033 $
KCYS 080553Z AUTO 13007KT 10SM CLR 12/08 A2982 RMK AO2 SLP015 T01220083 10228 20122 58012 $
KCYS 080453Z AUTO 13013KT 10SM CLR 14/08 A2984 RMK AO2 SLP024 T01390083 $
KCYS 080353Z 13017KT 10SM FEW120 16/08 A2986 RMK AO2 SLP032 T01610078
KCYS 080253Z 14016G25KT 10SM FEW110 18/06 A2986 RMK AO2 PK WND 14030/0230 SLP030 T01830056 55008
KCYS 080153Z 16008KT 10SM CLR 19/03 A2986 RMK AO2 SLP035 T01940028
KCYS 080053Z 17008KT 10SM CLR 21/M02 A2986 RMK AO2 WSHFT 2347 SLP042 T02111022
KCYS 080007Z 20011G20KT 10SM BKN110 22/M02 A2988 RMK AO2 WSHFT 2347 T02221017
KCYS 072353Z 20014G25KT 10SM OVC110 23/M01 A2989 RMK AO2 PK WND 24026/2257 WSHFT 2249 SLP055 T02281011 10261 20217 56013
KCYS 072309Z 28009KT 10SM FEW090 BKN110 22/M03 A2990 RMK AO2 PK WND 24026/2257 WSHFT 2249 T02221028
KCYS 072253Z 20018G23KT 10SM SCT110 23/M03 A2989 RMK AO2 SLP060 T02281033
KCYS 072153Z 22022G28KT 10SM CLR 24/M03 A2991 RMK AO2 PK WND 24028/2152 SLP062 T02391028
KCYS 072053Z 16007KT 10SM FEW080 FEW100 24/M04 A2994 RMK AO2 PK WND 21033/2031 SLP067 T02441039 56020
KCYS 071953Z 20008G18KT 10SM FEW120 26/M03 A2994 RMK AO2 SLP065 T02611028
KCYS 071853Z 18018G25KT 10SM CLR 23/M02 A2998 RMK AO2 SLP082 T02331022
KCYS 071753Z 16009G15KT 10SM CLR 24/M02 A3001 RMK AO2 SLP089 T02391022 10244 20056 58014
KCYS 071653Z 19010KT 10SM CLR 22/00 A3003 RMK AO2 SLP101 T02170000
KCYS 071553Z 19006KT 10SM CLR 21/M02 A3004 RMK AO2 SLP103 T02061022
KCYS 071453Z 18005KT 10SM CLR 18/01 A3005 RMK AO2 SLP109 T01780006 58003
KCYS 071353Z 26006KT 10SM CLR 14/M01 A3006 RMK AO2 SLP115 T01391006
KCYS 071253Z 27008KT 10SM CLR 09/01 A3006 RMK AO2 SLP124 T00890011
KCYS 071153Z AUTO 27011KT 10SM CLR 06/01 A3006 RMK AO2 SLP130 T00560011 10083 20033 56011
KCYS 071053Z AUTO 26008KT 10SM CLR 04/02 A3007 RMK AO2 SLP135 T00440017
KCYS 070953Z AUTO 29003KT 10SM CLR 06/02 A3008 RMK AO2 SLP139 T00560017
KCYS 070853Z AUTO 27004KT 10SM CLR 07/02 A3010 RMK AO2 SLP143 T00670022 58022
KCYS 070753Z AUTO 23006KT 10SM CLR 07/02 A3014 RMK AO2 SLP157 T00670017
KCYS 070653Z AUTO 23006KT 10SM CLR 07/02 A3016 RMK AO2 SLP167 T00720017 401781006
KCYS 070553Z AUTO 21006KT 10SM CLR 08/03 A3018 RMK AO2 SLP176 T00830028 10172 20083 58007
KCYS 070453Z AUTO 22006KT 10SM CLR 09/03 A3020 RMK AO2 SLP181 T00890028
KCYS 070353Z AUTO 18006KT 10SM CLR 11/03 A3021 RMK AO2 SLP187 T01060028
KCYS 070253Z 19008KT 10SM CLR 13/03 A3021 RMK AO2 SLP184 T01280028 53002
KCYS 070153Z 19009KT 10SM CLR 14/03 A3020 RMK AO2 SLP184 T01440028
KCYS 070053Z 19012KT 10SM CLR 16/02 A3019 RMK AO2 SLP188 T01610017
KCYS 062353Z 19011G17KT 10SM CLR 17/02 A3020 RMK AO2 SLP194 T01720017 10178 20133 56015
KCYS 062314Z 19011KT 10SM CLR 17/02 A3021 RMK AO2 T01720017
KCYS 062253Z 15011G16KT 10SM CLR 17/01 A3021 RMK AO2 SLP200 T01720011
KCYS 062153Z 15007KT 10SM CLR 17/02 A3023 RMK AO2 SLP203 T01670022
KCYS 062053Z 18011G15KT 10SM CLR 17/03 A3025 RMK AO2 SLP210 T01670028 56017
KCYS 061953Z 18007G16KT 10SM CLR 16/03 A3027 RMK AO2 SLP212 T01560028
KCYS 061853Z 15006KT 10SM CLR 15/02 A3029 RMK AO2 SLP219 T01500022
KCYS 061753Z 22008KT 10SM CLR 13/02 A3031 RMK AO2 SLP231 T01280022 10133 21006 58013
KCYS 061653Z 19014KT 10SM CLR 12/03 A3033 RMK AO2 SLP241 T01170028